• Join FlightAware (Why Join?)
  • Login
  • US Flag 
08:57AM EST


 

Airport Tracker/Info


-or-


 

Live Flight TrackerFlight Track Log ✈ N510SR ✈ 20-Apr-2014 ✈ MYAM / MHH - KMMU

Flight Track Log - Related Links

Times and Time Zones

All times are in EDT time to prevent confusion due to time zone crossing. See the N510SR flight status page for this flight to view local times or setup timezone preferences in your user account.

Time Position Orientation Groundspeed Altitude Reporting Facility
EDT Latitude Longitude Course Direction KTS MPH feet Rate Location/Type
02:23PM 26.6061 -77.2839 326° Northwest 387 445 10,800  Level Miami Center
02:24PM 26.6833 -77.3469 324° Northwest 360 414 12,100 1,740 Climbing Miami Center
02:25PM 26.7667 -77.4008 330° Northwest 347 399 14,300 2,280 Climbing Miami Center
02:26PM 26.8603 -77.4572 332° Northwest 359 413 16,700 2,340 Climbing Miami Center
02:27PM 26.9510 -77.5299 326° Northwest  Level FlightAware Approximate
02:27PM 26.9772 -77.4764 352° North 366 421 19,000  Level Miami Center
02:28PM 27.0858 -77.4911 353° North 378 435 21,100 1,740 Climbing Miami Center
02:29PM 27.1944 -77.5033 354° North 390 449 22,500 1,500 Climbing Miami Center
02:30PM 27.3114 -77.5203 353° North 411 473 24,100 1,620 Climbing Miami Center
02:31PM 27.4283 -77.5281 357° North 411 473 25,800 1,560 Climbing Miami Center
02:32PM 27.5472 -77.5614 346° North 417 480 27,300 1,380 Climbing Miami Center
02:33PM 27.6725 -77.5692 357° North 429 494 28,600 1,200 Climbing Miami Center
02:34PM 27.7892 -77.5889 351° North 436 502 29,800 1,320 Climbing Miami Center
02:35PM 27.9144 -77.6036 354° North 443 510 31,300 1,740 Climbing Miami Center
02:36PM 28.0333 -77.6233 352° North 440 506 33,300 2,100 Climbing Miami Center
02:37PM 28.1606 -77.6406 353° North 433 498 35,500 1,680 Climbing Miami Center
02:38PM 28.2375 -77.7167 319° Northwest 378 435 36,700 900 Climbing Miami Center
02:39PM 28.2994 -77.8089 307° West 374 430 37,400 900 Climbing Miami Center
02:40PM 28.3739 -77.9017 312° West 379 436 38,600 780 Climbing Miami Center
02:41PM 28.4464 -77.9944 312° West 389 448 39,000 180 Climbing Miami Center
02:42PM 28.5186 -78.0872 312° West 389 448 39,000 600 Level Miami Center
02:43PM 28.6036 -78.1569 324° Northwest 385 443 40,200 840 Climbing Miami Center
02:44PM 28.7183 -78.1725 353° North 395 455 40,700 360 Climbing Miami Center
02:45PM 28.8353 -78.1667 North 399 459 41,000 120 Climbing Miami Center
02:46PM 28.9542 -78.1608 North 406 467 41,000  Level Miami Center
02:47PM 29.0753 -78.1553 North 424 488 41,000  Level Miami Center
02:48PM 29.1942 -78.1494 North 424 488 41,000  Level Miami Center
02:49PM 29.3133 -78.1461 North 424 488 41,000  Level Miami Center
02:50PM 29.4281 -78.1378 North 422 486 41,000  Level Miami Center
02:51PM 29.5469 -78.1322 North 422 486 41,000  Level Miami Center
02:52PM 29.6658 -78.1264 North 422 486 41,000  Level Miami Center
02:53PM 29.7889 -78.1278 359° North 417 480 41,000  Level Miami Center
02:54PM 29.8933 -78.1100 North 417 480 41,000  Level Miami Center
02:55PM 30.0200 -78.1047 North 425 489 41,000  Level Jacksonville Center
02:56PM 30.1408 -78.0989 North 430 495 41,000  Level Jacksonville Center
02:57PM 30.2556 -78.0956 North 419 482 41,000  Level Jacksonville Center
02:58PM 30.3806 -78.0892 North 420 483 41,000  Level Jacksonville Center
02:59PM 30.4972 -78.0811 North 426 490 41,000  Level Jacksonville Center
03:00PM 30.6181 -78.0772 North 430 495 41,000  Level Jacksonville Center
03:01PM 30.7472 -78.0708 North 439 505 41,000  Level Jacksonville Center
03:02PM 30.8658 -78.0647 North 433 498 41,000  Level Jacksonville Center
03:03PM 30.9806 -78.0564 North 426 490 41,000  Level Jacksonville Center
03:04PM 31.0947 -78.0433 North 431 496 41,000  Level Jacksonville Center
03:05PM 31.2178 -78.0369 North 436 502 41,000  Level Jacksonville Center
03:06PM 31.3389 -78.0381 360° North 436 502 41,000  Level Jacksonville Center
03:07PM 31.4592 -78.0219 North 436 502 41,000  Level Jacksonville Center
03:08PM 31.5781 -78.0181 North 436 502 41,000  Level Jacksonville Center
03:09PM 31.7031 -78.0142 North 436 502 41,000  Level Jacksonville Center
03:10PM 31.8242 -78.0125 North 441 507 41,000  Level Jacksonville Center
03:11PM 31.9489 -78.0036 North 441 507 41,000  Level Jacksonville Center
03:12PM 32.0742 -77.9992 North 441 507 41,000  Level Jacksonville Center
03:13PM 32.1989 -77.9903 North 441 507 41,000  Level Jacksonville Center
03:14PM 32.3217 -77.9811 North 441 507 41,000  Level Jacksonville Center
03:15PM 32.4469 -77.9792 North 441 507 41,000  Level Jacksonville Center
03:16PM 32.5717 -77.9675 North 441 507 41,000  Level Jacksonville Center
03:17PM 32.6947 -77.9658 North 441 507 41,000  Level Jacksonville Center
03:18PM 32.8197 -77.9564 North 441 507 41,000  Level Jacksonville Center
03:19PM 32.9444 -77.9497 North 441 507 41,000  Level Jacksonville Center
03:20PM 33.0675 -77.9453 North 441 507 41,000  Level Jacksonville Center
03:22PM 33.2978 -77.9319 North 458 527 41,100  Climbing Washington Center
03:23PM 33.4231 -77.9253 North 458 527 41,000 -60 Descending Washington Center
03:24PM 33.5442 -77.9214 North 452 520 41,000  Level Washington Center
03:25PM 33.6675 -77.9147 North 442 509 41,000  Level Washington Center
03:26PM 33.7906 -77.9056 North 442 509 41,000  Level Washington Center
03:27PM 33.9075 -77.8989 North 448 516 41,100  Climbing Washington Center
03:28PM 34.0308 -77.8947 North 448 516 41,100  Level Washington Center
03:29PM 34.1542 -77.8856 North 448 516 41,100  Level Washington Center
03:30PM 34.2772 -77.8792 North 443 510 41,100 -60 Level Washington Center
03:31PM 34.4025 -77.8775 North 443 510 41,000 -60 Descending Washington Center
03:32PM 34.5256 -77.8758 North 437 503 41,000  Level Washington Center
03:33PM 34.6467 -77.8742 North 437 503 41,000  Level Washington Center
03:34PM 34.7719 -77.8728 North 437 503 41,000  Level Washington Center
03:35PM 34.8908 -77.8658 North 432 497 41,100  Climbing Washington Center
03:36PM 35.0139 -77.8667 360° North 432 497 41,100  Level Washington Center
03:37PM 35.1372 -77.8653 North 438 504 41,100  Level Washington Center
03:38PM 35.2625 -77.8611 North 438 504 41,100  Level Washington Center
03:39PM 35.3875 -77.8594 North 438 504 41,100  Level Washington Center
03:40PM 35.5128 -77.8581 North 438 504 41,100  Level Washington Center
03:41PM 35.6311 -77.8869 349° North 438 504 41,100  Level Washington Center
03:42PM 35.7167 -77.9967 314° West 412 474 41,100  Level Washington Center
03:43PM 35.8042 -78.1122 313° West 433 498 41,100  Level Washington Center
03:44PM 35.8994 -78.2356 314° West 446 513 41,100  Level Washington Center
03:45PM 35.9956 -78.3236 323° Northwest 446 513 41,100  Level Washington Center
03:46PM 36.1142 -78.3328 356° North 415 478 41,100  Level Washington Center
03:47PM 36.2342 -78.2933 15° North 406 467 41,100  Level Washington Center
03:48PM 36.3497 -78.2533 16° North 421 484 41,100  Level Washington Center
03:49PM 36.4697 -78.2083 17° North 434 499 41,100 -60 Level Washington Center
03:50PM 36.5894 -78.1683 15° North 439 505 41,000  Descending Washington Center
03:51PM 36.7108 -78.1517 North 433 498 41,100  Climbing Washington Center
03:52PM 36.8336 -78.1661 355° North 433 498 41,100  Level Washington Center
03:53PM 36.9567 -78.1728 358° North 433 498 41,100  Level Washington Center
03:54PM 37.0814 -78.1847 356° North 439 505 41,100  Level Washington Center
03:55PM 37.1939 -78.1964 355° North 439 505 41,100 -60 Level Washington Center
03:56PM 37.3169 -78.1981 359° North 439 505 41,000  Descending Washington Center
03:57PM 37.4172 -78.0892 41° Northeast 395 455 41,100  Climbing Washington Center
03:58PM 37.4764 -77.9469 62° Northeast 395 455 41,100  Level Washington Center
03:59PM 37.5519 -77.8183 53° Northeast 417 480 41,100  Level Washington Center
04:00PM 37.6497 -77.7164 40° Northeast 439 505 41,100 -60 Level Washington Center
04:01PM 37.7536 -77.6247 35° Northeast 450 518 41,000  Descending Washington Center
04:02PM 37.8594 -77.5303 35° Northeast 455 524 41,100  Climbing Washington Center
04:03PM 37.9631 -77.4356 36° Northeast 455 524 41,100 -60 Level Washington Center
04:04PM 38.0603 -77.3428 37° Northeast 455 524 41,000 -1,200 Descending Washington Center
04:05PM 38.1681 -77.2450 35° Northeast 463 533 38,700 -2,400 Descending Washington Center
04:06PM 38.2778 -77.1444 36° Northeast 469 540 36,200 -2,460 Descending Washington Center
04:07PM 38.3833 -77.0458 36° Northeast 469 540 33,800 -2,520 Descending Washington Center
04:08PM 38.5072 -76.9792 23° Northeast 469 540 31,300 -1,920 Descending Washington Center
04:09PM 38.6289 -76.9206 21° North 469 540 30,100 -600 Descending Washington Center
04:10PM 38.7483 -76.8614 21° North 469 540 30,100 -900 Level Washington Center
04:11PM 38.8656 -76.8019 22° Northeast 459 528 28,300 -1,500 Descending Washington Center
04:12PM 38.9744 -76.7503 20° North 433 498 27,100 -660 Descending Washington Center
04:13PM 39.0772 -76.6853 26° Northeast 413 475 27,100 -720 Level Washington Center
04:14PM 39.1614 -76.5847 43° Northeast 407 468 25,800 -1,020 Descending Washington Center
04:15PM 39.2333 -76.4706 51° Northeast 402 463 25,100 -900 Descending Washington Center
04:16PM 39.3047 -76.3586 50° Northeast 397 457 24,100 -540 Descending Washington Center
04:17PM 39.3764 -76.2494 50° Northeast 397 457 24,100 -960 Level Washington Center
04:18PM 39.4497 -76.1372 50° Northeast 403 464 22,200 -1,860 Descending Washington Center
04:20PM 39.6000 -75.9000 51° Northeast 368 423 18,000 -1,860 Descending Philadelphia TRACON
04:21PM 39.6833 -75.7833 47° Northeast 355 409 16,000 -1,800 Descending Philadelphia TRACON
04:22PM 39.7333 -75.7000 52° Northeast 352 405 14,400 -1,620 Descending Philadelphia TRACON
04:23PM 39.8000 -75.6000 49° Northeast 339 390 13,000 -720 Descending Philadelphia TRACON
04:24PM 39.8667 -75.5333 37° Northeast 337 388 13,000  Level Philadelphia TRACON
04:25PM 39.9500 -75.4500 37° Northeast 334 384 13,000  Level Philadelphia TRACON
04:26PM 40.0333 -75.3833 31° Northeast 336 387 13,000  Level Philadelphia TRACON
04:27PM 40.1000 -75.3167 37° Northeast 333 383 13,000 -180 Level Philadelphia TRACON
04:28PM 40.1833 -75.2500 31° Northeast 334 384 12,700 -960 Descending Philadelphia TRACON
04:29PM 40.2500 -75.1833 37° Northeast 316 364 11,200 -1,680 Descending Philadelphia TRACON
04:30PM 40.3167 -75.1167 37° Northeast 279 321 9,400 -1,500 Descending Philadelphia TRACON
04:31PM 40.3667 -75.0500 45° Northeast 270 311 8,200 -1,200 Descending New York TRACON
04:32PM 40.4167 -74.9833 45° Northeast 267 307 7,100 -1,260 Descending New York TRACON
04:33PM 40.4333 -74.9000 75° East 262 302 5,700 -1,500 Descending New York TRACON
04:34PM 40.4833 -74.8167 52° Northeast 258 297 4,200 -840 Descending New York TRACON
04:35PM 40.5500 -74.7833 21° North 250 288 4,100 -60 Descending New York TRACON
04:36PM 40.6000 -74.7333 37° Northeast 243 280 4,100  Level New York TRACON
04:37PM 40.6500 -74.6833 37° Northeast 232 267 4,100  Level New York TRACON
04:38PM 40.7167 -74.6500 21° North 250 288 4,100 -120 Level New York TRACON
04:39PM 40.7833 -74.6000 30° Northeast 250 288 3,900 -600 Descending New York TRACON
04:40PM 40.8167 -74.5333 57° Northeast 256 295 3,000 -480 Descending New York TRACON
04:41PM 40.8667 -74.4667 45° Northeast 204 235 3,000 -540 Level New York TRACON
04:42PM 40.8667 -74.4167 90° East 164 189 2,000 -900 Descending New York TRACON
04:43PM 40.8500 -74.3833 123° Southeast 145 167 1,300 -720 Descending New York TRACON